Terminal Aerodrome Forecast
Issued by NWS

Home | Current Version | Previous Version | Text Only | Print | Product List | Glossary On
Versions: 1 2 3 4 5 6 7 8 9 10 11 12 13 14 15 16 17 18 19 20 21 22 23 24
000
FTUS44 KMAF 210100 AAA
TAFPEQ
TAF AMD
KPEQ 210139Z 2102/2124 05007KT P6SM BKN050
     FM210800 10009KT P6SM OVC020
      TEMPO 2108/2112 2SM TSRA BR OVC005CB
     FM211200 08007KT P6SM OVC015
      TEMPO 2112/2116 1SM TSRA BR OVC005CB
     FM211600 08009KT P6SM OVC020
      TEMPO 2116/2120 2SM TSRA BR OVC005CB=

USA.gov is the U.S. government's official web portal to all federal, state and local government web resources and services.